Time;durP1;ratioP1;P1;durP2;ratioP2;P2;SDS_P1;SDS_P2;PMS_P1;PMS_P2;Temp;Humidity;BMP_temperature;BMP_pressure;BME280_temperature;BME280_humidity;BME280_pressure;Samples;Min_cycle;Max_cycle;Signal;HPM_P1;HPM_P2
2024/02/25 00:03:15;;;;;;;0.13;0.13;;;14.70;99.90;;;;;;10566999;27;20192;-63
2024/02/25 00:08:17;;;;;;;3.67;1.43;;;14.40;99.90;;;;;;10566554;27;20512;-62
2024/02/25 00:13:20;;;;;;;0.75;0.75;;;14.60;99.90;;;;;;10563024;27;20047;-60
2024/02/25 00:18:22;;;;;;;0.30;0.30;;;14.10;99.90;;;;;;10567051;27;20051;-62
2024/02/25 00:23:24;;;;;;;0.20;0.20;;;12.70;99.90;;;;;;10563213;28;20047;-62
2024/02/25 00:28:27;;;;;;;2.05;1.88;;;13.10;99.90;;;;;;10563649;27;20058;-61
2024/02/25 00:33:29;;;;;;;0.93;0.93;;;12.00;99.90;;;;;;10572934;27;20806;-62
2024/02/25 00:38:31;;;;;;;0.47;0.47;;;13.60;99.90;;;;;;10579065;27;20461;-61
2024/02/25 00:43:35;;;;;;;0.30;0.30;;;13.80;99.90;;;;;;10573726;27;20177;-62
2024/02/25 00:48:38;;;;;;;0.28;0.28;;;13.20;99.90;;;;;;10579741;27;20074;-60
2024/02/25 00:53:40;;;;;;;2.50;2.30;;;11.40;99.90;;;;;;10576211;27;20051;-61
2024/02/25 00:58:43;;;;;;;0.37;0.37;;;12.80;99.90;;;;;;10579047;27;20043;-62
2024/02/25 01:03:45;;;;;;;1.65;0.80;;;13.50;99.90;;;;;;10577203;27;20780;-63
2024/02/25 01:08:47;;;;;;;1.50;1.40;;;13.30;99.90;;;;;;10575286;27;20066;-62
2024/02/25 01:13:52;;;;;;;3.10;1.80;;;12.90;99.90;;;;;;10574091;27;20480;-61
2024/02/25 01:18:56;;;;;;;0.20;0.20;;;13.90;99.90;;;;;;10571067;27;20070;-62
2024/02/25 01:23:58;;;;;;;1.95;1.05;;;14.30;99.90;;;;;;10576563;27;20056;-62
2024/02/25 01:29:01;;;;;;;0.38;0.38;;;13.50;99.90;;;;;;10577238;27;20051;-63
2024/02/25 01:34:03;;;;;;;0.10;0.10;;;13.00;99.90;;;;;;10572072;27;20424;-62
2024/02/25 01:39:06;;;;;;;0.20;0.20;;;12.60;99.90;;;;;;10576196;27;20487;-61
2024/02/25 01:44:11;;;;;;;0.10;0.10;;;12.90;99.90;;;;;;10566703;27;20099;-62
2024/02/25 01:49:13;;;;;;;1.05;1.00;;;12.60;99.90;;;;;;10568945;27;20047;-62
2024/02/25 01:54:16;;;;;;;0.50;0.50;;;13.40;99.90;;;;;;10570540;27;20062;-63
2024/02/25 01:59:20;;;;;;;0.20;0.20;;;13.60;99.90;;;;;;10564613;27;20074;-63
2024/02/25 02:04:22;;;;;;;0.20;0.20;;;11.60;99.90;;;;;;10566108;27;20332;-62
2024/02/25 02:09:25;;;;;;;0.67;0.67;;;11.80;99.90;;;;;;10573660;27;20043;-63
2024/02/25 02:14:30;;;;;;;0.20;0.20;;;12.20;99.90;;;;;;10572777;27;20112;-61
2024/02/25 02:19:33;;;;;;;0.73;0.73;;;11.80;99.90;;;;;;10570592;27;20051;-60
2024/02/25 02:24:36;;;;;;;2.17;1.85;;;12.20;99.90;;;;;;10581016;27;20119;-61
2024/02/25 02:29:38;;;;;;;1.70;1.42;;;12.90;99.90;;;;;;10568033;27;20129;-61
2024/02/25 02:34:40;;;;;;;1.10;1.03;;;12.80;99.90;;;;;;10576036;27;20070;-62
2024/02/25 02:39:44;;;;;;;0.20;0.20;;;12.70;99.90;;;;;;10574480;27;20051;-63
2024/02/25 02:44:48;;;;;;;0.10;0.10;;;11.80;99.90;;;;;;10575090;27;20507;-64
2024/02/25 02:49:51;;;;;;;0.88;0.88;;;12.30;99.90;;;;;;10570607;27;20047;-61
2024/02/25 02:54:55;;;;;;;0.13;0.13;;;11.60;99.90;;;;;;10574066;27;20062;-61
2024/02/25 02:59:57;;;;;;;0.10;0.10;;;12.50;99.90;;;;;;10570508;27;20809;-61
2024/02/25 03:04:59;;;;;;;0.30;0.30;;;12.80;99.90;;;;;;10568378;27;20066;-61
2024/02/25 03:10:04;;;;;;;0.10;0.10;;;12.30;99.90;;;;;;10570392;27;20039;-62
2024/02/25 03:15:06;;;;;;;0.20;0.20;;;13.40;99.90;;;;;;10572049;27;20562;-60
2024/02/25 03:20:10;;;;;;;0.65;0.65;;;13.50;99.90;;;;;;10565331;27;20047;-61
2024/02/25 03:25:14;;;;;;;0.22;0.22;;;12.40;99.90;;;;;;10564487;27;20055;-61
2024/02/25 03:30:16;;;;;;;1.20;0.77;;;13.10;99.90;;;;;;10565024;27;20043;-61
2024/02/25 03:35:18;;;;;;;0.35;0.35;;;14.10;99.90;;;;;;10569146;27;20118;-62
2024/02/25 03:40:22;;;;;;;0.30;0.30;;;13.80;99.90;;;;;;10574107;27;20054;-62
2024/02/25 03:45:24;;;;;;;0.20;0.20;;;13.80;99.90;;;;;;10568612;27;20455;-61
2024/02/25 03:50:26;;;;;;;1.80;0.43;;;13.80;99.90;;;;;;10568426;27;20580;-62
2024/02/25 03:55:30;;;;;;;3.20;2.37;;;14.00;99.90;;;;;;10568198;27;20071;-63
2024/02/25 04:15:31;;;;;;;0.10;0.10;;;12.90;99.90;;;;;;10544747;27;20737;-61
2024/02/25 04:20:33;;;;;;;1.27;1.17;;;13.20;99.90;;;;;;10542524;28;20052;-61
2024/02/25 04:25:35;;;;;;;0.10;0.10;;;12.40;99.90;;;;;;10543021;28;21601;-63
2024/02/25 04:30:38;;;;;;;0.10;0.10;;;11.20;99.90;;;;;;10555707;28;20089;-61
2024/02/25 04:35:41;;;;;;;0.10;0.10;;;12.30;99.90;;;;;;10550644;28;20190;-61
2024/02/25 04:40:47;;;;;;;;;;;12.60;99.90;;;;;;10549923;28;20058;-61
2024/02/25 04:45:50;;;;;;;0.10;0.10;;;11.20;99.90;;;;;;10555659;28;19923;-60
2024/02/25 04:50:54;;;;;;;0.13;0.13;;;10.10;99.90;;;;;;10547735;27;20051;-63
2024/02/25 04:55:56;;;;;;;0.85;0.57;;;10.50;99.90;;;;;;10548756;28;20062;-61
2024/02/25 05:01:00;;;;;;;0.10;0.10;;;9.40;99.90;;;;;;10555680;28;21035;-62
2024/02/25 05:06:02;;;;;;;0.10;0.10;;;9.30;99.90;;;;;;10545937;28;20056;-61
2024/02/25 05:11:05;;;;;;;23.33;1.70;;;10.60;99.90;;;;;;10545987;28;20055;-62
2024/02/25 05:16:09;;;;;;;0.20;0.20;;;9.50;99.90;;;;;;10557404;28;20146;-62
2024/02/25 05:21:11;;;;;;;0.10;0.10;;;9.70;99.90;;;;;;10552193;27;20148;-61
2024/02/25 05:26:14;;;;;;;0.60;0.60;;;9.90;99.90;;;;;;10513583;28;20051;-63
2024/02/25 05:31:17;;;;;;;0.20;0.20;;;9.40;99.90;;;;;;10520707;28;20093;-60
2024/02/25 05:36:22;;;;;;;0.20;0.20;;;9.90;99.90;;;;;;10521784;28;20729;-62
2024/02/25 05:41:24;;;;;;;0.30;0.30;;;9.50;99.90;;;;;;10524015;28;20747;-61
2024/02/25 05:46:28;;;;;;;0.10;0.10;;;10.40;99.90;;;;;;10527665;28;20078;-61
2024/02/25 05:51:30;;;;;;;0.10;0.10;;;10.40;99.90;;;;;;10531093;28;20043;-62
2024/02/25 05:56:32;;;;;;;0.30;0.30;;;11.50;99.90;;;;;;10513264;28;20056;-61
2024/02/25 06:01:36;;;;;;;0.10;0.10;;;11.30;99.90;;;;;;10515313;28;20051;-61
2024/02/25 06:06:38;;;;;;;0.77;0.77;;;10.60;99.90;;;;;;10515563;28;20041;-60
2024/02/25 06:11:40;;;;;;;0.20;0.20;;;12.20;99.90;;;;;;10512252;28;20075;-62
2024/02/25 06:16:44;;;;;;;0.10;0.10;;;12.80;99.90;;;;;;10519933;28;20613;-61
2024/02/25 06:21:46;;;;;;;1.52;1.10;;;12.90;99.90;;;;;;10518709;28;20141;-62
2024/02/25 06:26:48;;;;;;;0.37;0.37;;;12.70;99.90;;;;;;10512964;28;20060;-61
2024/02/25 06:31:52;;;;;;;0.57;0.50;;;13.50;99.90;;;;;;10514365;28;20047;-62
2024/02/25 06:36:54;;;;;;;0.80;0.80;;;13.20;99.90;;;;;;10511439;28;20814;-62
2024/02/25 06:41:56;;;;;;;0.25;0.25;;;13.30;99.90;;;;;;10504037;28;20037;-63
2024/02/25 06:46:59;;;;;;;0.20;0.20;;;13.50;99.90;;;;;;10503736;28;20044;-62
2024/02/25 06:52:03;;;;;;;0.10;0.10;;;12.90;99.90;;;;;;10507492;28;20621;-62
2024/02/25 06:57:05;;;;;;;0.10;0.10;;;13.60;99.90;;;;;;10498914;28;20060;-63
2024/02/25 07:02:08;;;;;;;0.10;0.10;;;13.30;99.90;;;;;;10506121;28;20058;-62
2024/02/25 07:07:11;;;;;;;2.35;1.70;;;13.50;99.90;;;;;;10501950;28;20052;-62
2024/02/25 07:12:13;;;;;;;0.10;0.10;;;13.60;99.90;;;;;;10503695;28;20048;-64
2024/02/25 07:17:16;;;;;;;0.10;0.10;;;12.70;99.90;;;;;;10491954;28;20495;-61
2024/02/25 07:22:18;;;;;;;0.10;0.10;;;12.60;99.90;;;;;;10506405;28;20502;-62
2024/02/25 07:27:20;;;;;;;0.15;0.15;;;12.80;99.90;;;;;;10498195;28;20152;-61
2024/02/25 07:32:24;;;;;;;0.52;0.52;;;13.00;99.90;;;;;;10496326;28;20867;-62
2024/02/25 07:37:26;;;;;;;0.10;0.10;;;12.70;99.90;;;;;;10482358;28;20085;-63
2024/02/25 07:42:28;;;;;;;0.27;0.27;;;12.20;99.90;;;;;;10494202;28;20048;-63
2024/02/25 07:47:32;;;;;;;0.10;0.10;;;13.20;99.90;;;;;;10494956;28;20485;-60
2024/02/25 07:52:34;;;;;;;0.10;0.10;;;13.60;99.90;;;;;;10493029;28;20134;-62
2024/02/25 07:57:36;;;;;;;0.07;0.07;;;14.00;99.90;;;;;;10490455;28;20075;-63
2024/02/25 08:02:39;;;;;;;0.67;0.60;;;14.00;99.90;;;;;;10486838;28;20150;-63
2024/02/25 08:07:44;;;;;;;0.10;0.10;;;11.40;99.90;;;;;;10498024;28;20059;-63
2024/02/25 08:12:46;;;;;;;0.10;0.10;;;10.00;99.90;;;;;;10491531;28;20256;-61
2024/02/25 08:17:49;;;;;;;0.40;0.40;;;9.40;99.90;;;;;;10498438;28;20059;-61
2024/02/25 08:22:51;;;;;;;1.55;1.10;;;9.50;99.90;;;;;;10493417;28;20079;-61
2024/02/25 08:27:54;;;;;;;1.50;1.38;;;10.70;99.90;;;;;;10486539;28;20197;-62
2024/02/25 08:32:57;;;;;;;0.10;0.10;;;9.90;99.90;;;;;;10497639;28;20265;-63
2024/02/25 08:38:00;;;;;;;0.10;0.10;;;10.70;99.90;;;;;;10488685;28;20047;-62
2024/02/25 08:43:02;;;;;;;0.10;0.10;;;11.30;99.90;;;;;;10489618;28;20044;-60
2024/02/25 08:48:06;;;;;;;0.10;0.10;;;11.10;99.90;;;;;;10492243;28;20075;-63
2024/02/25 08:53:08;;;;;;;0.20;0.20;;;10.40;99.90;;;;;;10495917;28;20040;-61
2024/02/25 08:58:10;;;;;;;0.10;0.10;;;11.90;99.90;;;;;;10497664;28;20900;-60
2024/02/25 09:03:14;;;;;;;0.20;0.20;;;10.10;99.90;;;;;;10498600;28;20051;-61
2024/02/25 09:08:16;;;;;;;0.20;0.20;;;10.00;99.90;;;;;;10502744;28;20102;-61
2024/02/25 09:13:18;;;;;;;0.17;0.17;;;9.60;99.90;;;;;;10510518;28;20106;-61
2024/02/25 09:18:22;;;;;;;0.20;0.20;;;9.90;99.90;;;;;;10509545;28;20146;-60
2024/02/25 09:23:24;;;;;;;0.30;0.30;;;9.30;99.90;;;;;;10506152;28;20048;-61
2024/02/25 09:28:28;;;;;;;0.85;0.80;;;10.60;99.90;;;;;;10504070;28;20075;-62
2024/02/25 09:33:32;;;;;;;1.27;1.20;;;10.20;99.90;;;;;;10507775;28;20043;-60
2024/02/25 09:38:34;;;;;;;0.10;0.10;;;10.10;99.90;;;;;;10506619;28;20059;-60
2024/02/25 09:43:37;;;;;;;0.10;0.10;;;10.60;99.90;;;;;;10503936;28;20181;-62
2024/02/25 09:48:40;;;;;;;0.60;0.60;;;11.70;99.90;;;;;;10508753;28;20470;-61
2024/02/25 09:53:44;;;;;;;0.20;0.20;;;11.20;99.90;;;;;;10500180;28;20122;-61
2024/02/25 09:58:46;;;;;;;0.15;0.15;;;14.20;99.90;;;;;;10506008;28;20044;-61
2024/02/25 10:03:49;;;;;;;0.10;0.10;;;13.90;99.90;;;;;;10499940;28;20520;-61
2024/02/25 10:08:52;;;;;;;0.10;0.10;;;12.90;99.90;;;;;;10501640;28;20052;-61
2024/02/25 10:13:54;;;;;;;0.20;0.20;;;11.00;99.90;;;;;;10492618;28;20079;-61
2024/02/25 10:18:59;;;;;;;0.20;0.20;;;13.00;99.90;;;;;;10495445;28;20058;-61
2024/02/25 10:24:01;;;;;;;0.38;0.38;;;12.80;99.90;;;;;;10505280;28;20033;-63
2024/02/25 10:29:04;;;;;;;0.57;0.57;;;11.80;99.90;;;;;;10504243;28;20070;-60
2024/02/25 10:34:09;;;;;;;0.15;0.15;;;13.40;99.90;;;;;;10499176;28;20051;-62
2024/02/25 10:39:12;;;;;;;0.13;0.13;;;13.30;99.90;;;;;;10500168;28;20052;-61
2024/02/25 10:44:17;;;;;;;0.10;0.10;;;11.40;99.90;;;;;;10499296;28;20052;-61
2024/02/25 10:49:21;;;;;;;0.10;0.10;;;11.50;99.90;;;;;;10496449;28;20052;-62
2024/02/25 10:54:24;;;;;;;0.10;0.10;;;13.90;99.90;;;;;;10507171;28;20572;-61
2024/02/25 10:59:26;;;;;;;0.00;0.00;;;14.90;99.90;;;;;;10506046;28;23095;-62
2024/02/25 11:04:29;;;;;;;0.10;0.10;;;15.30;99.90;;;;;;10500238;28;20052;-60
2024/02/25 11:09:32;;;;;;;0.03;0.03;;;16.10;99.90;;;;;;10485664;28;20056;-60
2024/02/25 11:14:39;;;;;;;0.10;0.10;;;16.10;99.90;;;;;;10500932;28;20071;-63
2024/02/25 11:19:42;;;;;;;0.10;0.10;;;14.30;99.90;;;;;;10493923;28;20056;-60
2024/02/25 11:24:49;;;;;;;0.10;0.10;;;15.80;99.90;;;;;;10509960;28;20085;-63
2024/02/25 11:30:16;;;;;;;0.50;0.50;;;16.20;99.90;;;;;;10494721;28;20174;-61
2024/02/25 11:35:25;;;;;;;0.10;0.10;;;15.90;99.90;;;;;;10497848;28;20045;-61
2024/02/25 11:40:27;;;;;;;0.03;0.03;;;15.90;99.90;;;;;;10501833;28;20059;-60
2024/02/25 11:45:31;;;;;;;0.03;0.03;;;17.00;99.90;;;;;;10496727;28;20386;-60
2024/02/25 11:50:35;;;;;;;0.20;0.20;;;16.50;99.90;;;;;;10503174;28;20051;-61
2024/02/25 11:55:37;;;;;;;0.10;0.10;;;17.20;99.90;;;;;;10488544;28;20079;-63
2024/02/25 12:00:40;;;;;;;0.00;0.00;;;17.10;99.90;;;;;;10490714;28;20059;-63
2024/02/25 12:05:44;;;;;;;0.10;0.10;;;17.00;99.90;;;;;;10491352;28;20079;-62
2024/02/25 12:10:47;;;;;;;0.20;0.20;;;17.50;99.90;;;;;;10489953;28;20159;-62
2024/02/25 12:15:49;;;;;;;0.40;0.40;;;16.90;99.90;;;;;;10494887;28;20170;-62
2024/02/25 12:20:53;;;;;;;0.17;0.17;;;16.60;99.90;;;;;;10492485;28;20369;-63
2024/02/25 12:26:02;;;;;;;0.25;0.25;;;17.20;99.90;;;;;;10494683;28;20535;-61
2024/02/25 12:31:06;;;;;;;0.15;0.15;;;17.50;99.90;;;;;;10493004;28;20070;-61
2024/02/25 12:36:10;;;;;;;0.28;0.28;;;17.80;99.90;;;;;;10509136;28;20044;-63
2024/02/25 12:41:15;;;;;;;0.30;0.30;;;17.60;99.90;;;;;;10501879;28;20060;-60
2024/02/25 12:46:17;;;;;;;0.10;0.10;;;17.60;99.90;;;;;;10509064;28;20271;-60
2024/02/25 12:51:20;;;;;;;0.40;0.40;;;17.40;99.90;;;;;;10507931;28;20044;-61
2024/02/25 12:56:22;;;;;;;0.52;0.52;;;17.30;99.90;;;;;;10510915;28;21211;-61
2024/02/25 13:01:25;;;;;;;0.15;0.15;;;17.70;99.90;;;;;;10507260;28;20373;-62
2024/02/25 13:06:30;;;;;;;0.00;0.00;;;17.90;99.90;;;;;;10503311;28;20192;-61
2024/02/25 13:11:32;;;;;;;0.30;0.30;;;18.00;99.90;;;;;;10504389;28;20061;-62
2024/02/25 13:16:36;;;;;;;3.30;1.77;;;18.00;99.90;;;;;;10517701;28;20124;-61
2024/02/25 13:21:43;;;;;;;0.52;0.52;;;18.10;99.90;;;;;;10504011;28;20059;-62
2024/02/25 13:26:45;;;;;;;3.72;1.33;;;18.10;99.90;;;;;;10507223;28;20114;-62
2024/02/25 13:31:47;;;;;;;0.98;0.40;;;18.20;99.90;;;;;;10513601;28;20059;-62
2024/02/25 13:36:51;;;;;;;0.88;0.70;;;18.30;99.90;;;;;;10514640;28;20052;-63
2024/02/25 13:41:55;;;;;;;0.60;0.60;;;18.40;99.90;;;;;;10509715;28;20055;-62
2024/02/25 13:46:57;;;;;;;1.20;1.15;;;18.40;99.90;;;;;;10505580;28;20055;-62
2024/02/25 13:52:01;;;;;;;1.25;1.15;;;18.40;99.90;;;;;;10510258;28;20905;-63
2024/02/25 13:57:05;;;;;;;6.50;2.95;;;18.60;99.90;;;;;;10510032;28;20737;-63
2024/02/25 14:02:08;;;;;;;4.15;2.08;;;18.90;99.90;;;;;;10511937;28;20572;-62
2024/02/25 14:07:12;;;;;;;6.72;2.60;;;18.80;99.90;;;;;;10506663;28;20055;-61
2024/02/25 14:12:14;;;;;;;4.75;2.70;;;19.00;99.90;;;;;;10507619;28;20063;-61
2024/02/25 14:17:16;;;;;;;6.72;1.88;;;18.90;99.90;;;;;;10507181;28;20101;-62
2024/02/25 14:22:19;;;;;;;6.63;2.85;;;18.70;99.90;;;;;;10508519;28;20052;-65
2024/02/25 14:27:21;;;;;;;4.10;1.55;;;19.30;99.90;;;;;;10514712;28;20222;-62
2024/02/25 14:32:24;;;;;;;3.40;1.50;;;19.50;99.90;;;;;;10511628;28;20051;-63
2024/02/25 14:37:27;;;;;;;4.43;1.73;;;19.60;99.90;;;;;;10513383;28;20043;-62
2024/02/25 14:42:31;;;;;;;5.82;2.03;;;19.50;99.90;;;;;;10509574;28;20110;-62
2024/02/25 14:47:33;;;;;;;2.90;2.10;;;19.60;99.90;;;;;;10515410;28;20055;-63
2024/02/25 14:52:41;;;;;;;4.53;2.22;;;19.70;99.90;;;;;;10510129;28;20074;-62
2024/02/25 14:57:43;;;;;;;6.43;2.42;;;19.70;99.90;;;;;;10499183;28;20055;-62
2024/02/25 15:02:46;;;;;;;;;;;19.70;99.90;;;;;;10511677;28;20398;-63
2024/02/25 15:07:50;;;;;;;4.25;1.67;;;19.80;99.90;;;;;;10509597;28;19932;-63
2024/02/25 15:12:52;;;;;;;4.07;1.55;;;19.80;99.90;;;;;;10514858;28;20067;-62
2024/02/25 15:17:55;;;;;;;4.20;1.40;;;19.80;99.90;;;;;;10511798;28;20058;-62
2024/02/25 15:23:07;;;;;;;5.30;2.22;;;19.90;99.90;;;;;;10501341;28;20048;-63
2024/02/25 15:28:12;;;;;;;2.78;1.63;;;20.00;99.90;;;;;;10500974;28;20054;-63
2024/02/25 15:33:16;;;;;;;4.55;1.88;;;20.10;99.90;;;;;;10506132;28;20059;-62
2024/02/25 15:38:20;;;;;;;4.07;1.83;;;20.40;99.90;;;;;;10503902;28;20054;-61
2024/02/25 15:43:26;;;;;;;6.38;1.70;;;20.60;99.90;;;;;;10499903;28;20074;-61
2024/02/25 15:48:28;;;;;;;4.95;2.78;;;20.70;99.90;;;;;;10506317;28;20044;-62
2024/02/25 15:53:32;;;;;;;;;;;20.90;99.90;;;;;;10502625;28;20052;-62
2024/02/25 15:58:34;;;;;;;5.07;2.53;;;21.00;99.90;;;;;;10507065;28;19931;-62
2024/02/25 16:03:36;;;;;;;6.50;2.13;;;21.10;99.90;;;;;;10494333;28;20063;-62
2024/02/25 16:08:39;;;;;;;4.40;2.00;;;21.00;99.90;;;;;;10497871;28;20483;-61
2024/02/25 16:13:41;;;;;;;6.63;2.60;;;20.50;99.90;;;;;;10498784;28;20485;-61
2024/02/25 16:18:43;;;;;;;5.72;2.40;;;20.80;99.90;;;;;;10499439;28;20897;-61
2024/02/25 16:23:46;;;;;;;5.20;2.33;;;21.00;99.90;;;;;;10494325;28;20059;-62
2024/02/25 16:28:48;;;;;;;8.68;2.17;;;21.10;99.90;;;;;;10504740;28;20070;-61
2024/02/25 16:33:51;;;;;;;4.72;2.05;;;21.00;99.90;;;;;;10502147;28;20049;-62
2024/02/25 16:38:55;;;;;;;7.80;1.80;;;20.90;99.90;;;;;;10503895;28;20059;-61
2024/02/25 16:43:57;;;;;;;4.40;1.85;;;20.90;99.90;;;;;;10486717;28;20132;-62
2024/02/25 16:48:59;;;;;;;3.22;1.90;;;20.80;99.90;;;;;;10500660;28;20055;-60
2024/02/25 16:54:03;;;;;;;3.78;1.60;;;20.70;99.90;;;;;;10505168;28;20673;-61
2024/02/25 16:59:05;;;;;;;4.07;1.77;;;20.60;99.90;;;;;;10496123;28;20047;-63
2024/02/25 17:04:07;;;;;;;4.32;2.40;;;20.50;99.90;;;;;;10501571;28;20044;-62
2024/02/25 17:09:11;;;;;;;5.07;2.88;;;20.30;99.90;;;;;;10500539;28;20056;-61
2024/02/25 17:14:13;;;;;;;2.97;1.65;;;19.70;99.90;;;;;;10495150;28;20678;-61
2024/02/25 17:19:15;;;;;;;4.07;2.08;;;19.90;99.90;;;;;;10496802;28;20052;-63
2024/02/25 17:24:19;;;;;;;7.55;2.30;;;20.00;99.90;;;;;;10508332;28;20048;-62
2024/02/25 17:29:21;;;;;;;5.88;2.63;;;20.00;99.90;;;;;;10511149;28;20695;-61
2024/02/25 17:34:23;;;;;;;4.80;2.58;;;19.80;99.90;;;;;;10511025;28;20080;-62
2024/02/25 17:39:27;;;;;;;7.80;4.45;;;19.80;99.90;;;;;;10516245;28;20083;-64
2024/02/25 17:44:29;;;;;;;4.60;2.22;;;19.70;99.90;;;;;;10515129;28;20055;-62
2024/02/25 17:49:31;;;;;;;7.00;2.50;;;19.70;99.90;;;;;;10518120;28;20192;-61
2024/02/25 17:54:35;;;;;;;6.50;2.45;;;19.50;99.90;;;;;;10516970;28;20129;-63
2024/02/25 17:59:37;;;;;;;6.00;2.75;;;19.40;99.90;;;;;;10512463;28;20044;-62
2024/02/25 18:04:40;;;;;;;5.70;2.38;;;19.30;99.90;;;;;;10514366;28;20523;-61
2024/02/25 18:09:44;;;;;;;6.10;2.65;;;19.20;99.90;;;;;;10512972;28;20170;-62
2024/02/25 18:14:48;;;;;;;6.03;2.72;;;18.80;99.90;;;;;;10513821;28;20048;-61
2024/02/25 18:19:50;;;;;;;5.90;2.70;;;18.50;99.90;;;;;;10517403;28;20215;-62
2024/02/25 18:24:55;;;;;;;6.10;2.75;;;18.10;99.90;;;;;;10512380;28;20143;-61
2024/02/25 18:29:57;;;;;;;3.72;2.53;;;18.20;99.90;;;;;;10511126;28;20052;-61
2024/02/25 18:34:59;;;;;;;4.95;2.70;;;17.60;99.90;;;;;;10511998;28;20044;-62
2024/02/25 18:40:03;;;;;;;5.22;2.78;;;17.80;99.90;;;;;;10505858;28;20105;-61
2024/02/25 18:45:06;;;;;;;4.90;3.15;;;17.90;99.90;;;;;;10511426;28;20890;-60
2024/02/25 18:50:08;;;;;;;7.53;3.10;;;17.60;99.90;;;;;;10511958;28;20189;-63
2024/02/25 18:55:12;;;;;;;8.70;3.30;;;17.30;99.90;;;;;;10512545;28;22467;-61
2024/02/25 19:00:15;;;;;;;7.07;3.55;;;17.40;99.90;;;;;;10511151;28;20063;-63
2024/02/25 19:05:17;;;;;;;5.82;4.05;;;17.30;99.90;;;;;;10510091;28;20056;-59
2024/02/25 19:10:23;;;;;;;6.68;2.83;;;17.30;99.90;;;;;;10513543;28;20051;-64
2024/02/25 19:15:26;;;;;;;6.50;2.78;;;17.10;99.90;;;;;;10521075;28;20043;-60
2024/02/25 19:20:28;;;;;;;;;;;17.30;99.90;;;;;;10518595;28;20484;-62
2024/02/25 19:25:32;;;;;;;2.83;2.17;;;17.90;99.90;;;;;;10511655;28;20562;-65
2024/02/25 19:30:35;;;;;;;3.17;2.10;;;18.00;99.90;;;;;;10507145;28;20683;-60
2024/02/25 19:35:38;;;;;;;3.55;1.83;;;18.10;99.90;;;;;;10512063;28;20051;-61
2024/02/25 19:40:45;;;;;;;4.78;2.13;;;18.10;99.90;;;;;;10504404;28;20048;-63
2024/02/25 19:45:47;;;;;;;4.07;2.17;;;18.00;99.90;;;;;;10509983;28;20167;-62
2024/02/25 19:50:49;;;;;;;3.75;1.80;;;18.00;99.90;;;;;;10515686;28;20055;-62
2024/02/25 19:55:52;;;;;;;7.65;2.42;;;18.10;99.90;;;;;;10500766;28;20783;-61
2024/02/25 20:00:54;;;;;;;3.88;1.52;;;18.00;99.90;;;;;;10500596;28;20759;-61
2024/02/25 20:05:57;;;;;;;7.45;2.28;;;17.80;99.90;;;;;;10505385;28;20125;-63
2024/02/25 20:11:10;;;;;;;4.30;2.17;;;17.90;99.90;;;;;;10502752;28;20930;-63
2024/02/25 20:16:13;;;;;;;9.05;2.15;;;17.90;99.90;;;;;;10495219;28;20060;-61
2024/02/25 20:21:15;;;;;;;6.93;2.55;;;17.80;99.90;;;;;;10508686;28;20487;-61
2024/02/25 20:26:25;;;;;;;6.38;2.30;;;17.80;99.90;;;;;;10511011;28;20048;-62
2024/02/25 20:31:27;;;;;;;5.68;2.60;;;17.70;99.90;;;;;;10501416;28;20429;-62
2024/02/25 20:36:30;;;;;;;13.30;3.35;;;17.80;99.90;;;;;;10502178;28;20051;-62
2024/02/25 20:41:36;;;;;;;10.35;2.88;;;17.60;99.90;;;;;;10505022;28;20114;-63
2024/02/25 20:46:39;;;;;;;5.15;2.95;;;17.70;99.90;;;;;;10500504;28;20100;-63
2024/02/25 20:51:41;;;;;;;;;;;17.30;99.90;;;;;;10510444;28;20051;-62
2024/02/25 20:56:44;;;;;;;8.23;3.97;;;16.60;99.90;;;;;;10503289;28;19924;-64
2024/02/25 21:01:46;;;;;;;11.27;4.00;;;16.30;99.90;;;;;;10512362;28;20113;-61
2024/02/25 21:06:49;;;;;;;11.32;4.57;;;15.90;99.90;;;;;;10513201;28;20102;-59
2024/02/25 21:11:52;;;;;;;7.47;3.33;;;16.20;99.90;;;;;;10516167;28;20788;-61
2024/02/25 21:16:54;;;;;;;12.63;3.80;;;16.10;99.90;;;;;;10524050;28;20059;-61
2024/02/25 21:21:56;;;;;;;4.03;2.33;;;16.00;99.90;;;;;;10516422;28;20111;-60
2024/02/25 21:27:00;;;;;;;7.97;3.08;;;15.70;99.90;;;;;;10527807;28;20075;-61
2024/02/25 21:32:02;;;;;;;9.77;4.40;;;15.50;99.90;;;;;;10520096;28;20048;-61
2024/02/25 21:37:05;;;;;;;4.38;3.25;;;15.20;99.90;;;;;;10513783;28;20046;-58
2024/02/25 21:42:08;;;;;;;8.77;4.50;;;15.70;99.90;;;;;;10521926;28;20062;-62
2024/02/25 21:47:10;;;;;;;7.78;2.92;;;16.70;99.90;;;;;;10513087;28;20059;-63
2024/02/25 21:52:13;;;;;;;6.50;3.03;;;16.80;99.90;;;;;;10516702;28;20882;-61
2024/02/25 21:57:16;;;;;;;12.07;2.47;;;16.90;99.90;;;;;;10519412;28;20585;-60
2024/02/25 22:02:18;;;;;;;6.03;2.80;;;16.90;99.90;;;;;;10511673;28;20051;-61
2024/02/25 22:07:20;;;;;;;5.87;2.80;;;17.00;99.90;;;;;;10521675;28;20976;-60
2024/02/25 22:12:23;;;;;;;5.95;2.97;;;17.10;99.90;;;;;;10522476;28;20048;-61
2024/02/25 22:17:25;;;;;;;5.45;3.25;;;17.00;99.90;;;;;;10517430;28;20051;-63
2024/02/25 22:22:27;;;;;;;8.75;2.60;;;17.00;99.90;;;;;;10526357;28;20073;-62
2024/02/25 22:27:31;;;;;;;9.13;3.17;;;16.70;99.90;;;;;;10518321;28;20079;-61
2024/02/25 22:32:33;;;;;;;6.78;3.20;;;16.80;99.90;;;;;;10523386;28;20051;-60
2024/02/25 22:37:35;;;;;;;5.40;2.80;;;16.80;99.90;;;;;;10523010;28;20866;-61
2024/02/25 22:42:39;;;;;;;6.15;2.40;;;16.90;99.90;;;;;;10507857;28;21089;-60
2024/02/25 22:47:41;;;;;;;4.88;2.42;;;16.80;99.90;;;;;;10530592;28;20866;-62
2024/02/25 22:52:44;;;;;;;6.78;3.08;;;16.90;99.90;;;;;;10521070;28;20058;-62
2024/02/25 22:57:48;;;;;;;7.30;2.92;;;16.80;99.90;;;;;;10502104;28;20082;-61
2024/02/25 23:02:51;;;;;;;4.80;2.20;;;16.80;99.90;;;;;;10521399;28;20170;-61
2024/02/25 23:07:53;;;;;;;4.80;2.72;;;16.70;99.90;;;;;;10518002;28;20043;-60
2024/02/25 23:12:57;;;;;;;6.97;2.33;;;16.80;99.90;;;;;;10513589;28;20055;-61
2024/02/25 23:17:59;;;;;;;3.67;2.30;;;16.80;99.90;;;;;;10523856;28;21423;-62
2024/02/25 23:23:01;;;;;;;3.90;1.87;;;16.50;99.90;;;;;;10518509;28;20052;-61
2024/02/25 23:28:05;;;;;;;4.30;2.50;;;16.70;99.90;;;;;;10515886;28;20757;-61
2024/02/25 23:33:07;;;;;;;3.15;1.98;;;16.60;99.90;;;;;;10518206;28;20481;-61
2024/02/25 23:38:09;;;;;;;5.20;2.27;;;16.40;99.90;;;;;;10525978;28;20792;-60
2024/02/25 23:43:12;;;;;;;3.70;2.07;;;16.50;99.90;;;;;;10522464;28;20465;-61
2024/02/25 23:48:14;;;;;;;3.83;1.80;;;16.50;99.90;;;;;;10520451;28;20048;-61
2024/02/25 23:53:17;;;;;;;5.20;2.07;;;16.30;99.90;;;;;;10518701;28;20489;-61
2024/02/25 23:58:20;;;;;;;4.93;2.17;;;16.50;99.90;;;;;;10519615;28;20454;-62
